sensor_id;sensor_type;location;lat;lon;timestamp;P1;durP1;ratioP1;P2;durP2;ratioP2
12308;SDS011;6217;48.150;17.142;2024-01-15T00:03:05;26.95;;;13.88;;
12308;SDS011;6217;48.150;17.142;2024-01-15T00:07:11;24.42;;;15.88;;
12308;SDS011;6217;48.150;17.142;2024-01-15T00:11:17;33.45;;;16.98;;
12308;SDS011;6217;48.150;17.142;2024-01-15T00:15:23;30.33;;;15.68;;
12308;SDS011;6217;48.150;17.142;2024-01-15T00:19:29;26.75;;;16.88;;
12308;SDS011;6217;48.150;17.142;2024-01-15T00:23:39;26.17;;;15.15;;
12308;SDS011;6217;48.150;17.142;2024-01-15T00:27:49;22.77;;;14.18;;
12308;SDS011;6217;48.150;17.142;2024-01-15T00:31:55;28.85;;;16.92;;
12308;SDS011;6217;48.150;17.142;2024-01-15T00:36:01;27.45;;;16.83;;
12308;SDS011;6217;48.150;17.142;2024-01-15T00:40:08;30.73;;;16.17;;
12308;SDS011;6217;48.150;17.142;2024-01-15T00:44:14;24.92;;;15.55;;
12308;SDS011;6217;48.150;17.142;2024-01-15T00:48:20;29.75;;;16.48;;
12308;SDS011;6217;48.150;17.142;2024-01-15T00:52:26;28.80;;;16.33;;
12308;SDS011;6217;48.150;17.142;2024-01-15T00:56:32;30.63;;;17.02;;
12308;SDS011;6217;48.150;17.142;2024-01-15T01:00:38;30.27;;;17.50;;
12308;SDS011;6217;48.150;17.142;2024-01-15T01:04:44;34.55;;;18.95;;
12308;SDS011;6217;48.150;17.142;2024-01-15T01:08:50;34.55;;;17.65;;
12308;SDS011;6217;48.150;17.142;2024-01-15T01:12:56;34.25;;;19.52;;
12308;SDS011;6217;48.150;17.142;2024-01-15T01:17:02;34.60;;;20.00;;
12308;SDS011;6217;48.150;17.142;2024-01-15T01:21:08;38.40;;;20.35;;
12308;SDS011;6217;48.150;17.142;2024-01-15T01:25:14;34.15;;;20.55;;
12308;SDS011;6217;48.150;17.142;2024-01-15T01:29:20;30.80;;;20.33;;
12308;SDS011;6217;48.150;17.142;2024-01-15T01:33:26;36.75;;;20.23;;
12308;SDS011;6217;48.150;17.142;2024-01-15T01:37:32;36.10;;;20.60;;
12308;SDS011;6217;48.150;17.142;2024-01-15T01:41:39;36.40;;;19.80;;
12308;SDS011;6217;48.150;17.142;2024-01-15T01:45:45;35.53;;;20.90;;
12308;SDS011;6217;48.150;17.142;2024-01-15T01:49:51;33.55;;;19.48;;
12308;SDS011;6217;48.150;17.142;2024-01-15T01:53:58;35.72;;;20.52;;
12308;SDS011;6217;48.150;17.142;2024-01-15T01:58:04;34.85;;;20.70;;
12308;SDS011;6217;48.150;17.142;2024-01-15T02:02:10;34.95;;;20.77;;
12308;SDS011;6217;48.150;17.142;2024-01-15T02:06:17;32.03;;;18.20;;
12308;SDS011;6217;48.150;17.142;2024-01-15T02:10:23;37.42;;;21.67;;
12308;SDS011;6217;48.150;17.142;2024-01-15T02:14:29;39.03;;;21.63;;
12308;SDS011;6217;48.150;17.142;2024-01-15T02:18:42;30.75;;;19.00;;
12308;SDS011;6217;48.150;17.142;2024-01-15T02:22:49;34.30;;;20.38;;
12308;SDS011;6217;48.150;17.142;2024-01-15T02:26:55;37.47;;;21.90;;
12308;SDS011;6217;48.150;17.142;2024-01-15T02:31:01;38.50;;;21.52;;
12308;SDS011;6217;48.150;17.142;2024-01-15T02:35:07;41.47;;;22.08;;
12308;SDS011;6217;48.150;17.142;2024-01-15T02:39:13;38.95;;;22.73;;
12308;SDS011;6217;48.150;17.142;2024-01-15T02:43:19;35.97;;;21.52;;
12308;SDS011;6217;48.150;17.142;2024-01-15T02:47:24;42.95;;;24.20;;
12308;SDS011;6217;48.150;17.142;2024-01-15T02:51:30;38.65;;;23.35;;
12308;SDS011;6217;48.150;17.142;2024-01-15T02:55:36;42.50;;;23.30;;
12308;SDS011;6217;48.150;17.142;2024-01-15T02:59:42;38.40;;;21.40;;
12308;SDS011;6217;48.150;17.142;2024-01-15T03:03:48;43.17;;;23.95;;
12308;SDS011;6217;48.150;17.142;2024-01-15T03:07:54;41.15;;;23.83;;
12308;SDS011;6217;48.150;17.142;2024-01-15T03:12:00;38.80;;;23.83;;
12308;SDS011;6217;48.150;17.142;2024-01-15T03:16:06;41.42;;;24.10;;
12308;SDS011;6217;48.150;17.142;2024-01-15T03:20:12;39.30;;;24.45;;
12308;SDS011;6217;48.150;17.142;2024-01-15T03:24:18;40.10;;;23.00;;
12308;SDS011;6217;48.150;17.142;2024-01-15T03:28:24;42.47;;;25.13;;
12308;SDS011;6217;48.150;17.142;2024-01-15T03:32:30;41.35;;;24.40;;
12308;SDS011;6217;48.150;17.142;2024-01-15T03:36:36;39.47;;;24.92;;
12308;SDS011;6217;48.150;17.142;2024-01-15T03:40:41;39.83;;;24.25;;
12308;SDS011;6217;48.150;17.142;2024-01-15T03:44:48;45.58;;;26.10;;
12308;SDS011;6217;48.150;17.142;2024-01-15T03:48:54;42.92;;;24.75;;
12308;SDS011;6217;48.150;17.142;2024-01-15T03:52:59;47.97;;;22.55;;
12308;SDS011;6217;48.150;17.142;2024-01-15T03:57:06;41.95;;;23.90;;
12308;SDS011;6217;48.150;17.142;2024-01-15T04:01:11;42.83;;;24.13;;
12308;SDS011;6217;48.150;17.142;2024-01-15T04:05:17;37.50;;;22.17;;
12308;SDS011;6217;48.150;17.142;2024-01-15T04:09:23;33.03;;;17.65;;
12308;SDS011;6217;48.150;17.142;2024-01-15T04:13:32;24.27;;;13.02;;
12308;SDS011;6217;48.150;17.142;2024-01-15T04:17:38;22.88;;;12.35;;
12308;SDS011;6217;48.150;17.142;2024-01-15T04:21:44;16.83;;;11.20;;
12308;SDS011;6217;48.150;17.142;2024-01-15T04:25:50;18.95;;;10.13;;
12308;SDS011;6217;48.150;17.142;2024-01-15T04:29:56;16.58;;;8.90;;
12308;SDS011;6217;48.150;17.142;2024-01-15T04:34:02;16.40;;;9.27;;
12308;SDS011;6217;48.150;17.142;2024-01-15T04:38:08;12.90;;;7.03;;
12308;SDS011;6217;48.150;17.142;2024-01-15T04:42:14;14.23;;;7.40;;
12308;SDS011;6217;48.150;17.142;2024-01-15T04:46:20;12.15;;;5.82;;
12308;SDS011;6217;48.150;17.142;2024-01-15T04:50:26;14.38;;;6.97;;
12308;SDS011;6217;48.150;17.142;2024-01-15T04:54:32;13.73;;;6.13;;
12308;SDS011;6217;48.150;17.142;2024-01-15T04:58:37;14.55;;;5.72;;
12308;SDS011;6217;48.150;17.142;2024-01-15T05:02:43;10.98;;;5.78;;
12308;SDS011;6217;48.150;17.142;2024-01-15T05:06:49;17.27;;;6.88;;
12308;SDS011;6217;48.150;17.142;2024-01-15T05:10:55;9.38;;;4.40;;
12308;SDS011;6217;48.150;17.142;2024-01-15T05:15:01;15.05;;;6.63;;
12308;SDS011;6217;48.150;17.142;2024-01-15T05:19:08;13.40;;;6.88;;
12308;SDS011;6217;48.150;17.142;2024-01-15T05:23:14;14.18;;;6.30;;
12308;SDS011;6217;48.150;17.142;2024-01-15T05:27:20;10.57;;;6.28;;
12308;SDS011;6217;48.150;17.142;2024-01-15T05:31:26;15.68;;;7.53;;
12308;SDS011;6217;48.150;17.142;2024-01-15T05:35:33;11.10;;;6.07;;
12308;SDS011;6217;48.150;17.142;2024-01-15T05:39:39;12.90;;;6.38;;
12308;SDS011;6217;48.150;17.142;2024-01-15T05:43:45;10.75;;;6.70;;
12308;SDS011;6217;48.150;17.142;2024-01-15T05:47:51;10.77;;;6.82;;
12308;SDS011;6217;48.150;17.142;2024-01-15T05:51:57;9.43;;;4.25;;
12308;SDS011;6217;48.150;17.142;2024-01-15T05:56:03;14.88;;;6.97;;
12308;SDS011;6217;48.150;17.142;2024-01-15T06:00:09;12.45;;;8.88;;
12308;SDS011;6217;48.150;17.142;2024-01-15T06:04:16;11.80;;;6.72;;
12308;SDS011;6217;48.150;17.142;2024-01-15T06:08:22;9.00;;;5.60;;
12308;SDS011;6217;48.150;17.142;2024-01-15T06:12:28;12.52;;;6.53;;
12308;SDS011;6217;48.150;17.142;2024-01-15T06:16:34;13.48;;;7.47;;
12308;SDS011;6217;48.150;17.142;2024-01-15T06:20:40;12.30;;;7.20;;
12308;SDS011;6217;48.150;17.142;2024-01-15T06:24:46;12.43;;;6.82;;
12308;SDS011;6217;48.150;17.142;2024-01-15T06:28:52;13.80;;;8.68;;
12308;SDS011;6217;48.150;17.142;2024-01-15T06:32:58;17.13;;;7.55;;
12308;SDS011;6217;48.150;17.142;2024-01-15T06:37:03;16.23;;;7.38;;
12308;SDS011;6217;48.150;17.142;2024-01-15T06:41:09;13.98;;;6.45;;
12308;SDS011;6217;48.150;17.142;2024-01-15T06:45:15;10.80;;;6.72;;
12308;SDS011;6217;48.150;17.142;2024-01-15T06:49:21;10.38;;;6.47;;
12308;SDS011;6217;48.150;17.142;2024-01-15T06:53:27;11.60;;;6.80;;
12308;SDS011;6217;48.150;17.142;2024-01-15T06:57:33;9.32;;;5.25;;
12308;SDS011;6217;48.150;17.142;2024-01-15T07:01:39;7.45;;;4.57;;
12308;SDS011;6217;48.150;17.142;2024-01-15T07:05:45;8.10;;;5.40;;
12308;SDS011;6217;48.150;17.142;2024-01-15T07:09:51;6.78;;;4.80;;
12308;SDS011;6217;48.150;17.142;2024-01-15T07:13:57;9.50;;;4.95;;
12308;SDS011;6217;48.150;17.142;2024-01-15T07:18:03;8.93;;;4.20;;
12308;SDS011;6217;48.150;17.142;2024-01-15T07:22:09;6.97;;;4.07;;
12308;SDS011;6217;48.150;17.142;2024-01-15T07:26:15;7.25;;;3.92;;
12308;SDS011;6217;48.150;17.142;2024-01-15T07:30:21;9.63;;;4.45;;
12308;SDS011;6217;48.150;17.142;2024-01-15T07:34:27;8.38;;;4.88;;
12308;SDS011;6217;48.150;17.142;2024-01-15T07:38:33;11.55;;;5.10;;
12308;SDS011;6217;48.150;17.142;2024-01-15T07:42:39;8.65;;;5.40;;
12308;SDS011;6217;48.150;17.142;2024-01-15T07:46:48;8.73;;;4.60;;
12308;SDS011;6217;48.150;17.142;2024-01-15T07:50:54;10.80;;;5.47;;
12308;SDS011;6217;48.150;17.142;2024-01-15T07:54:59;8.00;;;5.45;;
12308;SDS011;6217;48.150;17.142;2024-01-15T07:59:06;9.02;;;5.25;;
12308;SDS011;6217;48.150;17.142;2024-01-15T08:03:12;8.25;;;5.50;;
12308;SDS011;6217;48.150;17.142;2024-01-15T08:07:18;9.73;;;4.32;;
12308;SDS011;6217;48.150;17.142;2024-01-15T08:11:24;13.18;;;5.00;;
12308;SDS011;6217;48.150;17.142;2024-01-15T08:15:29;8.73;;;5.32;;
12308;SDS011;6217;48.150;17.142;2024-01-15T08:19:35;9.10;;;5.40;;
12308;SDS011;6217;48.150;17.142;2024-01-15T08:23:41;9.70;;;5.22;;
12308;SDS011;6217;48.150;17.142;2024-01-15T08:27:47;8.13;;;4.40;;
12308;SDS011;6217;48.150;17.142;2024-01-15T08:31:53;8.32;;;5.13;;
12308;SDS011;6217;48.150;17.142;2024-01-15T08:35:59;8.32;;;3.97;;
12308;SDS011;6217;48.150;17.142;2024-01-15T08:40:05;8.98;;;4.00;;
12308;SDS011;6217;48.150;17.142;2024-01-15T08:44:12;15.15;;;6.00;;
12308;SDS011;6217;48.150;17.142;2024-01-15T08:48:18;6.15;;;3.70;;
12308;SDS011;6217;48.150;17.142;2024-01-15T08:52:24;10.43;;;4.97;;
12308;SDS011;6217;48.150;17.142;2024-01-15T08:56:29;7.40;;;4.25;;
12308;SDS011;6217;48.150;17.142;2024-01-15T09:00:35;8.27;;;5.20;;
12308;SDS011;6217;48.150;17.142;2024-01-15T09:04:41;10.63;;;4.15;;
12308;SDS011;6217;48.150;17.142;2024-01-15T09:08:48;8.65;;;4.60;;
12308;SDS011;6217;48.150;17.142;2024-01-15T09:12:54;7.28;;;4.15;;
12308;SDS011;6217;48.150;17.142;2024-01-15T09:17:00;7.28;;;3.28;;
12308;SDS011;6217;48.150;17.142;2024-01-15T09:21:06;8.18;;;4.20;;
12308;SDS011;6217;48.150;17.142;2024-01-15T09:25:12;7.93;;;4.30;;
12308;SDS011;6217;48.150;17.142;2024-01-15T09:29:21;9.00;;;4.65;;
12308;SDS011;6217;48.150;17.142;2024-01-15T09:33:28;9.93;;;4.25;;
12308;SDS011;6217;48.150;17.142;2024-01-15T09:37:34;8.25;;;5.03;;
12308;SDS011;6217;48.150;17.142;2024-01-15T09:41:40;10.73;;;3.97;;
12308;SDS011;6217;48.150;17.142;2024-01-15T09:45:47;7.00;;;3.92;;
12308;SDS011;6217;48.150;17.142;2024-01-15T09:49:55;10.23;;;6.00;;
12308;SDS011;6217;48.150;17.142;2024-01-15T09:54:03;8.98;;;4.30;;
12308;SDS011;6217;48.150;17.142;2024-01-15T09:58:09;5.15;;;3.50;;
12308;SDS011;6217;48.150;17.142;2024-01-15T10:02:15;13.20;;;3.63;;
12308;SDS011;6217;48.150;17.142;2024-01-15T10:06:23;7.72;;;3.35;;
12308;SDS011;6217;48.150;17.142;2024-01-15T10:10:35;4.25;;;3.20;;
12308;SDS011;6217;48.150;17.142;2024-01-15T10:14:42;6.18;;;3.10;;
12308;SDS011;6217;48.150;17.142;2024-01-15T10:18:49;7.72;;;3.17;;
12308;SDS011;6217;48.150;17.142;2024-01-15T10:22:55;7.82;;;2.63;;
12308;SDS011;6217;48.150;17.142;2024-01-15T10:27:04;4.55;;;2.85;;
12308;SDS011;6217;48.150;17.142;2024-01-15T10:31:12;3.85;;;2.35;;
12308;SDS011;6217;48.150;17.142;2024-01-15T10:35:18;4.55;;;2.55;;
12308;SDS011;6217;48.150;17.142;2024-01-15T10:39:27;6.93;;;2.50;;
12308;SDS011;6217;48.150;17.142;2024-01-15T10:43:33;3.70;;;2.40;;
12308;SDS011;6217;48.150;17.142;2024-01-15T10:47:39;4.72;;;2.35;;
12308;SDS011;6217;48.150;17.142;2024-01-15T10:51:46;5.63;;;2.42;;
12308;SDS011;6217;48.150;17.142;2024-01-15T10:55:53;3.05;;;2.08;;
12308;SDS011;6217;48.150;17.142;2024-01-15T11:00:01;4.70;;;2.80;;
12308;SDS011;6217;48.150;17.142;2024-01-15T11:04:10;4.70;;;2.72;;
12308;SDS011;6217;48.150;17.142;2024-01-15T11:08:16;5.28;;;2.80;;
12308;SDS011;6217;48.150;17.142;2024-01-15T11:12:24;6.45;;;3.33;;
12308;SDS011;6217;48.150;17.142;2024-01-15T11:16:52;4.75;;;2.78;;
12308;SDS011;6217;48.150;17.142;2024-01-15T11:25:22;4.03;;;2.35;;
12308;SDS011;6217;48.150;17.142;2024-01-15T11:33:35;4.38;;;2.30;;
12308;SDS011;6217;48.150;17.142;2024-01-15T11:42:00;3.78;;;2.28;;
12308;SDS011;6217;48.150;17.142;2024-01-15T11:46:11;4.15;;;2.08;;
12308;SDS011;6217;48.150;17.142;2024-01-15T11:50:18;2.35;;;1.83;;
12308;SDS011;6217;48.150;17.142;2024-01-15T11:54:24;2.08;;;1.77;;
12308;SDS011;6217;48.150;17.142;2024-01-15T11:58:31;4.28;;;2.15;;
12308;SDS011;6217;48.150;17.142;2024-01-15T12:02:38;3.72;;;1.63;;
12308;SDS011;6217;48.150;17.142;2024-01-15T12:06:46;4.32;;;1.92;;
12308;SDS011;6217;48.150;17.142;2024-01-15T12:10:52;6.45;;;1.80;;
12308;SDS011;6217;48.150;17.142;2024-01-15T12:14:58;3.83;;;1.80;;
12308;SDS011;6217;48.150;17.142;2024-01-15T12:19:05;3.05;;;2.00;;
12308;SDS011;6217;48.150;17.142;2024-01-15T12:23:13;3.47;;;1.80;;
12308;SDS011;6217;48.150;17.142;2024-01-15T12:27:19;4.35;;;1.58;;
12308;SDS011;6217;48.150;17.142;2024-01-15T12:31:26;3.03;;;1.70;;
12308;SDS011;6217;48.150;17.142;2024-01-15T12:35:33;1.95;;;1.75;;
12308;SDS011;6217;48.150;17.142;2024-01-15T12:39:42;2.40;;;1.60;;
12308;SDS011;6217;48.150;17.142;2024-01-15T12:43:49;4.30;;;1.60;;
12308;SDS011;6217;48.150;17.142;2024-01-15T12:47:55;2.97;;;2.28;;
12308;SDS011;6217;48.150;17.142;2024-01-15T12:52:01;1.90;;;1.35;;
12308;SDS011;6217;48.150;17.142;2024-01-15T12:56:07;3.05;;;1.83;;
12308;SDS011;6217;48.150;17.142;2024-01-15T13:00:13;3.25;;;1.67;;
12308;SDS011;6217;48.150;17.142;2024-01-15T13:04:23;2.63;;;2.03;;
12308;SDS011;6217;48.150;17.142;2024-01-15T13:08:29;2.38;;;1.95;;
12308;SDS011;6217;48.150;17.142;2024-01-15T13:12:36;3.30;;;2.10;;
12308;SDS011;6217;48.150;17.142;2024-01-15T13:16:43;2.92;;;2.15;;
12308;SDS011;6217;48.150;17.142;2024-01-15T13:20:49;8.25;;;2.17;;
12308;SDS011;6217;48.150;17.142;2024-01-15T13:24:55;4.03;;;1.67;;
12308;SDS011;6217;48.150;17.142;2024-01-15T13:29:04;3.30;;;1.73;;
12308;SDS011;6217;48.150;17.142;2024-01-15T13:33:10;4.53;;;1.80;;
12308;SDS011;6217;48.150;17.142;2024-01-15T13:37:16;4.25;;;2.05;;
12308;SDS011;6217;48.150;17.142;2024-01-15T13:41:22;4.40;;;1.60;;
12308;SDS011;6217;48.150;17.142;2024-01-15T13:45:32;2.63;;;1.63;;
12308;SDS011;6217;48.150;17.142;2024-01-15T13:49:39;2.63;;;2.10;;
12308;SDS011;6217;48.150;17.142;2024-01-15T13:53:45;6.13;;;2.42;;
12308;SDS011;6217;48.150;17.142;2024-01-15T13:57:51;4.53;;;2.42;;
12308;SDS011;6217;48.150;17.142;2024-01-15T14:01:57;2.70;;;1.30;;
12308;SDS011;6217;48.150;17.142;2024-01-15T14:06:03;3.63;;;2.75;;
12308;SDS011;6217;48.150;17.142;2024-01-15T14:10:13;2.50;;;1.88;;
12308;SDS011;6217;48.150;17.142;2024-01-15T14:14:20;3.03;;;2.38;;
12308;SDS011;6217;48.150;17.142;2024-01-15T14:18:26;4.13;;;2.20;;
12308;SDS011;6217;48.150;17.142;2024-01-15T14:22:32;3.75;;;1.98;;
12308;SDS011;6217;48.150;17.142;2024-01-15T14:26:38;3.65;;;2.33;;
12308;SDS011;6217;48.150;17.142;2024-01-15T14:30:44;3.17;;;1.80;;
12308;SDS011;6217;48.150;17.142;2024-01-15T14:34:50;2.97;;;2.00;;
12308;SDS011;6217;48.150;17.142;2024-01-15T14:38:56;1.92;;;1.60;;
12308;SDS011;6217;48.150;17.142;2024-01-15T14:43:02;2.75;;;1.90;;
12308;SDS011;6217;48.150;17.142;2024-01-15T14:47:08;4.07;;;1.70;;
12308;SDS011;6217;48.150;17.142;2024-01-15T14:51:14;2.78;;;1.63;;
12308;SDS011;6217;48.150;17.142;2024-01-15T14:55:20;2.03;;;1.50;;
12308;SDS011;6217;48.150;17.142;2024-01-15T14:59:28;5.25;;;1.80;;
12308;SDS011;6217;48.150;17.142;2024-01-15T15:03:35;7.53;;;2.83;;
12308;SDS011;6217;48.150;17.142;2024-01-15T15:07:41;3.55;;;2.30;;
12308;SDS011;6217;48.150;17.142;2024-01-15T15:11:46;2.85;;;1.75;;
12308;SDS011;6217;48.150;17.142;2024-01-15T15:15:53;3.05;;;1.60;;
12308;SDS011;6217;48.150;17.142;2024-01-15T15:19:59;4.13;;;1.95;;
12308;SDS011;6217;48.150;17.142;2024-01-15T15:24:07;3.20;;;1.95;;
12308;SDS011;6217;48.150;17.142;2024-01-15T15:28:14;3.08;;;1.85;;
12308;SDS011;6217;48.150;17.142;2024-01-15T15:32:21;3.90;;;1.77;;
12308;SDS011;6217;48.150;17.142;2024-01-15T15:36:27;2.67;;;1.70;;
12308;SDS011;6217;48.150;17.142;2024-01-15T15:40:33;2.55;;;1.90;;
12308;SDS011;6217;48.150;17.142;2024-01-15T15:44:39;3.55;;;1.80;;
12308;SDS011;6217;48.150;17.142;2024-01-15T15:48:51;2.13;;;1.70;;
12308;SDS011;6217;48.150;17.142;2024-01-15T15:52:57;2.38;;;1.60;;
12308;SDS011;6217;48.150;17.142;2024-01-15T15:57:02;3.38;;;1.90;;
12308;SDS011;6217;48.150;17.142;2024-01-15T16:01:08;7.65;;;2.20;;
12308;SDS011;6217;48.150;17.142;2024-01-15T16:05:17;2.78;;;2.35;;
12308;SDS011;6217;48.150;17.142;2024-01-15T16:09:23;2.70;;;1.88;;
12308;SDS011;6217;48.150;17.142;2024-01-15T16:13:29;2.65;;;1.70;;
12308;SDS011;6217;48.150;17.142;2024-01-15T16:17:35;1.83;;;1.42;;
12308;SDS011;6217;48.150;17.142;2024-01-15T16:21:41;2.15;;;1.63;;
12308;SDS011;6217;48.150;17.142;2024-01-15T16:25:48;4.75;;;1.70;;
12308;SDS011;6217;48.150;17.142;2024-01-15T16:29:53;3.80;;;1.50;;
12308;SDS011;6217;48.150;17.142;2024-01-15T16:33:59;2.80;;;1.27;;
12308;SDS011;6217;48.150;17.142;2024-01-15T16:38:05;2.55;;;1.67;;
12308;SDS011;6217;48.150;17.142;2024-01-15T16:42:11;2.40;;;1.55;;
12308;SDS011;6217;48.150;17.142;2024-01-15T16:46:17;2.35;;;1.50;;
12308;SDS011;6217;48.150;17.142;2024-01-15T16:50:23;2.50;;;1.40;;
12308;SDS011;6217;48.150;17.142;2024-01-15T16:54:30;3.35;;;2.90;;
12308;SDS011;6217;48.150;17.142;2024-01-15T16:58:38;2.60;;;1.60;;
12308;SDS011;6217;48.150;17.142;2024-01-15T17:02:44;3.08;;;1.40;;
12308;SDS011;6217;48.150;17.142;2024-01-15T17:06:50;4.88;;;1.52;;
12308;SDS011;6217;48.150;17.142;2024-01-15T17:10:56;3.38;;;1.58;;
12308;SDS011;6217;48.150;17.142;2024-01-15T17:15:02;1.95;;;1.55;;
12308;SDS011;6217;48.150;17.142;2024-01-15T17:19:08;1.40;;;1.30;;
12308;SDS011;6217;48.150;17.142;2024-01-15T17:23:15;2.30;;;1.40;;
12308;SDS011;6217;48.150;17.142;2024-01-15T17:27:21;1.50;;;1.40;;
12308;SDS011;6217;48.150;17.142;2024-01-15T17:31:27;2.30;;;1.52;;
12308;SDS011;6217;48.150;17.142;2024-01-15T17:35:33;2.90;;;1.38;;
12308;SDS011;6217;48.150;17.142;2024-01-15T17:39:39;4.05;;;1.80;;
12308;SDS011;6217;48.150;17.142;2024-01-15T17:43:47;1.90;;;1.30;;
12308;SDS011;6217;48.150;17.142;2024-01-15T17:47:53;2.67;;;1.42;;
12308;SDS011;6217;48.150;17.142;2024-01-15T17:51:59;1.83;;;1.33;;
12308;SDS011;6217;48.150;17.142;2024-01-15T17:56:05;5.05;;;1.20;;
12308;SDS011;6217;48.150;17.142;2024-01-15T18:00:11;4.20;;;1.23;;
12308;SDS011;6217;48.150;17.142;2024-01-15T18:04:19;2.85;;;2.33;;
12308;SDS011;6217;48.150;17.142;2024-01-15T18:08:25;2.83;;;1.17;;
12308;SDS011;6217;48.150;17.142;2024-01-15T18:12:31;1.52;;;1.17;;
12308;SDS011;6217;48.150;17.142;2024-01-15T18:16:38;3.50;;;1.40;;
12308;SDS011;6217;48.150;17.142;2024-01-15T18:20:44;3.88;;;1.98;;
12308;SDS011;6217;48.150;17.142;2024-01-15T18:24:50;1.55;;;1.40;;
12308;SDS011;6217;48.150;17.142;2024-01-15T18:28:56;1.38;;;1.27;;
12308;SDS011;6217;48.150;17.142;2024-01-15T18:33:02;2.33;;;1.10;;
12308;SDS011;6217;48.150;17.142;2024-01-15T18:37:08;1.83;;;1.10;;
12308;SDS011;6217;48.150;17.142;2024-01-15T18:41:21;1.88;;;1.33;;
12308;SDS011;6217;48.150;17.142;2024-01-15T18:45:29;1.38;;;1.17;;
12308;SDS011;6217;48.150;17.142;2024-01-15T18:49:35;2.05;;;1.45;;
12308;SDS011;6217;48.150;17.142;2024-01-15T18:53:42;1.52;;;1.30;;
12308;SDS011;6217;48.150;17.142;2024-01-15T18:57:47;2.60;;;1.50;;
12308;SDS011;6217;48.150;17.142;2024-01-15T19:01:53;1.25;;;1.00;;
12308;SDS011;6217;48.150;17.142;2024-01-15T19:05:59;1.77;;;1.40;;
12308;SDS011;6217;48.150;17.142;2024-01-15T19:10:06;2.25;;;1.42;;
12308;SDS011;6217;48.150;17.142;2024-01-15T19:14:12;2.58;;;1.20;;
12308;SDS011;6217;48.150;17.142;2024-01-15T19:18:18;2.28;;;1.15;;
12308;SDS011;6217;48.150;17.142;2024-01-15T19:22:25;2.25;;;1.50;;
12308;SDS011;6217;48.150;17.142;2024-01-15T19:26:31;2.05;;;1.08;;
12308;SDS011;6217;48.150;17.142;2024-01-15T19:30:37;1.50;;;1.27;;
12308;SDS011;6217;48.150;17.142;2024-01-15T19:34:43;1.55;;;1.10;;
12308;SDS011;6217;48.150;17.142;2024-01-15T19:38:50;1.10;;;1.02;;
12308;SDS011;6217;48.150;17.142;2024-01-15T19:42:56;1.60;;;1.05;;
12308;SDS011;6217;48.150;17.142;2024-01-15T19:47:02;3.15;;;1.35;;
12308;SDS011;6217;48.150;17.142;2024-01-15T19:51:08;4.55;;;1.30;;
12308;SDS011;6217;48.150;17.142;2024-01-15T19:55:14;2.85;;;0.93;;
12308;SDS011;6217;48.150;17.142;2024-01-15T19:59:21;2.40;;;1.00;;
12308;SDS011;6217;48.150;17.142;2024-01-15T20:03:28;2.95;;;1.10;;
12308;SDS011;6217;48.150;17.142;2024-01-15T20:07:35;1.65;;;1.17;;
12308;SDS011;6217;48.150;17.142;2024-01-15T20:11:42;4.75;;;1.40;;
12308;SDS011;6217;48.150;17.142;2024-01-15T20:15:49;1.38;;;1.27;;
12308;SDS011;6217;48.150;17.142;2024-01-15T20:19:55;1.70;;;1.15;;
12308;SDS011;6217;48.150;17.142;2024-01-15T20:24:02;11.55;;;1.70;;
12308;SDS011;6217;48.150;17.142;2024-01-15T20:28:12;1.50;;;1.10;;
12308;SDS011;6217;48.150;17.142;2024-01-15T20:32:18;1.83;;;1.50;;
12308;SDS011;6217;48.150;17.142;2024-01-15T20:36:29;1.90;;;1.40;;
12308;SDS011;6217;48.150;17.142;2024-01-15T20:40:36;1.45;;;1.17;;
12308;SDS011;6217;48.150;17.142;2024-01-15T20:44:45;1.27;;;1.05;;
12308;SDS011;6217;48.150;17.142;2024-01-15T20:48:51;1.38;;;0.90;;
12308;SDS011;6217;48.150;17.142;2024-01-15T20:52:57;1.50;;;0.90;;
12308;SDS011;6217;48.150;17.142;2024-01-15T20:57:03;1.60;;;1.20;;
12308;SDS011;6217;48.150;17.142;2024-01-15T21:01:09;1.75;;;1.33;;
12308;SDS011;6217;48.150;17.142;2024-01-15T21:05:16;1.23;;;0.90;;
12308;SDS011;6217;48.150;17.142;2024-01-15T21:09:23;1.05;;;0.95;;
12308;SDS011;6217;48.150;17.142;2024-01-15T21:13:29;2.55;;;1.27;;
12308;SDS011;6217;48.150;17.142;2024-01-15T21:17:35;1.00;;;1.00;;
12308;SDS011;6217;48.150;17.142;2024-01-15T21:21:42;1.10;;;1.00;;
12308;SDS011;6217;48.150;17.142;2024-01-15T21:25:49;1.45;;;1.20;;
12308;SDS011;6217;48.150;17.142;2024-01-15T21:29:55;1.73;;;1.10;;
12308;SDS011;6217;48.150;17.142;2024-01-15T21:34:01;0.90;;;0.88;;
12308;SDS011;6217;48.150;17.142;2024-01-15T21:38:07;1.20;;;1.05;;
12308;SDS011;6217;48.150;17.142;2024-01-15T21:42:13;1.40;;;1.10;;
12308;SDS011;6217;48.150;17.142;2024-01-15T21:46:19;1.10;;;1.00;;
12308;SDS011;6217;48.150;17.142;2024-01-15T21:50:25;1.92;;;1.02;;
12308;SDS011;6217;48.150;17.142;2024-01-15T21:54:31;3.33;;;2.00;;
12308;SDS011;6217;48.150;17.142;2024-01-15T21:58:37;2.65;;;1.33;;
12308;SDS011;6217;48.150;17.142;2024-01-15T22:02:44;2.53;;;1.10;;
12308;SDS011;6217;48.150;17.142;2024-01-15T22:06:50;1.65;;;1.30;;
12308;SDS011;6217;48.150;17.142;2024-01-15T22:10:56;2.63;;;1.23;;
12308;SDS011;6217;48.150;17.142;2024-01-15T22:15:02;1.30;;;1.10;;
12308;SDS011;6217;48.150;17.142;2024-01-15T22:19:08;1.58;;;1.30;;
12308;SDS011;6217;48.150;17.142;2024-01-15T22:23:14;0.90;;;0.90;;
12308;SDS011;6217;48.150;17.142;2024-01-15T22:27:20;1.13;;;1.00;;
12308;SDS011;6217;48.150;17.142;2024-01-15T22:31:26;1.83;;;1.40;;
12308;SDS011;6217;48.150;17.142;2024-01-15T22:35:32;1.77;;;1.02;;
12308;SDS011;6217;48.150;17.142;2024-01-15T22:39:38;1.17;;;1.08;;
12308;SDS011;6217;48.150;17.142;2024-01-15T22:43:45;1.45;;;1.30;;
12308;SDS011;6217;48.150;17.142;2024-01-15T22:47:51;3.20;;;1.40;;
12308;SDS011;6217;48.150;17.142;2024-01-15T22:51:57;1.50;;;1.33;;
12308;SDS011;6217;48.150;17.142;2024-01-15T22:56:03;1.48;;;1.10;;
12308;SDS011;6217;48.150;17.142;2024-01-15T23:00:09;2.72;;;1.15;;
12308;SDS011;6217;48.150;17.142;2024-01-15T23:04:51;5.20;;;1.58;;
12308;SDS011;6217;48.150;17.142;2024-01-15T23:08:58;2.40;;;1.38;;
12308;SDS011;6217;48.150;17.142;2024-01-15T23:13:04;1.85;;;1.50;;
12308;SDS011;6217;48.150;17.142;2024-01-15T23:17:10;4.50;;;2.25;;
12308;SDS011;6217;48.150;17.142;2024-01-15T23:21:16;1.58;;;1.30;;
12308;SDS011;6217;48.150;17.142;2024-01-15T23:25:23;1.40;;;1.30;;
12308;SDS011;6217;48.150;17.142;2024-01-15T23:29:35;1.83;;;1.52;;
12308;SDS011;6217;48.150;17.142;2024-01-15T23:33:50;2.63;;;1.77;;
12308;SDS011;6217;48.150;17.142;2024-01-15T23:37:56;2.13;;;1.17;;
12308;SDS011;6217;48.150;17.142;2024-01-15T23:42:02;3.17;;;1.80;;
12308;SDS011;6217;48.150;17.142;2024-01-15T23:46:09;1.50;;;1.40;;
12308;SDS011;6217;48.150;17.142;2024-01-15T23:50:18;5.50;;;2.53;;
12308;SDS011;6217;48.150;17.142;2024-01-15T23:54:24;3.15;;;1.60;;
12308;SDS011;6217;48.150;17.142;2024-01-15T23:58:30;1.52;;;1.42;;
